Portada
METAR-TAF:

METAR-TAF

Aeropuertos :

Dax, Francia

Seyresse

latitud: 43-41N, longitud: 001-04W, altitud: 32 m

Observación

El informe se hizo hace 26 minutos, a las 18:00 UTC
Viento calma
Temperatura 24°C
Humedad 57%
Presión 1017 hPa
Visibilidad 10 km o más

METAR: LFBY 231800Z AUTO 00000KT 9999 // ////// 24/15 Q1017

Hora: 20:26 (18:26 UTC)


TAF: falta

Observaciones y pronósticos meteorológicos de más de 4000 aeropuertos (mensajes METAR y TAF).

Los puntos amarillos y rojos representan las estaciones disponibles.

Ponga el ratón en el punto deseado para ver el nombre de la estación.

Haga clic para ver las observaciones y los pronósticos meteorológicos.

Para cambiar el mapa : haga clic en los botones verdes con una cruz de color negro para hacer un zoom, en el botón verde con un guión para alejar o en las flechas verdes para mapas adyacentes.


METAR-TAF: